York, Maine
Current Conditions -  °F | °C
As of 7:43 PM on Monday 22 Dec 2014 (Local Time) from KPSM Reporting Station
Light Rain Light Rain  
Wind Chill: 29°   Ceiling: 2800
Heat Index: 36°   Visibility: 7mi
Dew Point: 34°   Wind: 8mph
Humidity: 93%   Direction: 20°NNE
Pressure: 30.33"   Gusts: NA
Location:  43.15°N, 70.65°W
Report Text: KPSM 230043Z 02007KT 7SM -RA FEW009 OVC028 02/01 A3033 RMK AO2A
Loading
Personal Weather Stations






























Interactive Weather Map New forecast layout! Learn more

10-Day Weather Forecast

Advertisements
Track Severe Weather on mobile